Time;durP1;ratioP1;P1;durP2;ratioP2;P2;SDS_P1;SDS_P2;PMS_P1;PMS_P2;Temp;Humidity;BMP_temperature;BMP_pressure;BME280_temperature;BME280_humidity;BME280_pressure;Samples;Min_cycle;Max_cycle;Signal;HPM_P1;HPM_P2
2024/03/16 00:01:50;;;;;;;31.15;7.47;;;11.40;99.90;;;;;;5102284;27;20096;-82
2024/03/16 00:04:16;;;;;;;28.20;8.23;;;11.40;99.90;;;;;;5099146;28;20049;-84
2024/03/16 00:06:42;;;;;;;31.35;7.53;;;11.40;99.90;;;;;;5101444;27;20524;-82
2024/03/16 00:09:08;;;;;;;29.75;8.23;;;11.40;99.90;;;;;;5102185;27;20105;-82
2024/03/16 00:11:34;;;;;;;28.02;8.05;;;11.40;99.90;;;;;;5083953;28;20054;-83
2024/03/16 00:14:00;;;;;;;31.23;8.20;;;11.40;99.90;;;;;;5098852;28;20541;-82
2024/03/16 00:16:27;;;;;;;27.00;8.48;;;11.40;99.90;;;;;;5091243;28;20039;-81
2024/03/16 00:18:53;;;;;;;23.90;7.28;;;11.40;99.90;;;;;;5087169;28;20047;-82
2024/03/16 00:21:19;;;;;;;25.67;7.63;;;11.40;99.90;;;;;;5101174;27;20040;-82
2024/03/16 00:23:45;;;;;;;30.75;8.48;;;11.40;99.90;;;;;;5102639;27;20490;-83
2024/03/16 00:26:11;;;;;;;26.88;8.18;;;11.40;99.90;;;;;;5104074;27;20691;-82
2024/03/16 00:28:37;;;;;;;28.70;8.88;;;11.40;99.90;;;;;;5085981;27;20545;-82
2024/03/16 00:31:03;;;;;;;28.75;8.32;;;11.40;99.90;;;;;;5103505;28;20327;-83
2024/03/16 00:33:29;;;;;;;27.23;8.18;;;11.40;99.90;;;;;;5084809;28;20075;-83
2024/03/16 00:35:54;;;;;;;34.33;8.63;;;11.40;99.90;;;;;;5107913;27;20078;-77
2024/03/16 00:38:20;;;;;;;30.55;8.80;;;11.30;99.90;;;;;;5093163;28;20487;-78
2024/03/16 00:40:46;;;;;;;33.47;9.13;;;11.30;99.90;;;;;;5089746;28;20066;-76
2024/03/16 00:43:17;;;;;;;33.17;9.80;;;11.30;99.90;;;;;;5114724;27;20506;-76
2024/03/16 00:45:44;;;;;;;32.60;9.25;;;11.20;99.90;;;;;;5084865;28;20052;-76
2024/03/16 00:48:12;;;;;;;36.33;10.57;;;11.20;99.90;;;;;;5095546;28;20040;-76
2024/03/16 00:50:38;;;;;;;41.45;11.18;;;11.20;99.90;;;;;;5116971;27;20502;-75
2024/03/16 00:53:03;;;;;;;32.33;9.43;;;11.10;99.90;;;;;;5101426;27;20095;-75
2024/03/16 00:55:29;;;;;;;37.25;10.65;;;11.10;99.90;;;;;;5099456;28;20043;-75
2024/03/16 00:57:56;;;;;;;41.83;10.70;;;11.10;99.90;;;;;;5102716;27;20049;-76
2024/03/16 01:00:25;;;;;;;37.63;10.63;;;11.00;99.90;;;;;;5099878;27;20462;-76
2024/03/16 01:02:50;;;;;;;45.85;12.13;;;11.00;99.90;;;;;;5095367;27;20047;-76
2024/03/16 01:05:16;;;;;;;41.33;12.25;;;11.00;99.90;;;;;;5102857;27;20046;-76
2024/03/16 01:07:42;;;;;;;47.70;12.52;;;10.90;99.90;;;;;;5085836;28;20160;-76
2024/03/16 01:10:11;;;;;;;43.05;13.25;;;10.90;99.90;;;;;;5086416;28;20134;-76
2024/03/16 01:12:36;;;;;;;45.53;13.77;;;10.90;99.90;;;;;;5115947;27;20097;-76
2024/03/16 01:15:03;;;;;;;37.33;12.93;;;10.90;99.90;;;;;;5109647;28;20048;-76
2024/03/16 01:17:28;;;;;;;50.30;14.07;;;10.90;99.90;;;;;;5102041;28;20374;-83
2024/03/16 01:19:55;;;;;;;41.70;14.07;;;10.90;99.90;;;;;;5104611;28;20043;-84
2024/03/16 01:22:21;;;;;;;47.88;16.02;;;10.80;99.90;;;;;;5095518;28;20059;-83
2024/03/16 01:24:49;;;;;;;47.45;17.48;;;10.90;99.90;;;;;;5103283;28;20055;-84
2024/03/16 01:27:15;;;;;;;57.70;18.20;;;10.80;99.90;;;;;;5087897;28;20215;-84
2024/03/16 01:29:41;;;;;;;54.90;19.10;;;10.80;99.90;;;;;;5105378;28;20048;-83
2024/03/16 01:32:08;;;;;;;54.83;20.05;;;10.80;99.90;;;;;;5114947;27;20593;-84
2024/03/16 01:34:35;;;;;;;61.17;22.38;;;10.80;99.90;;;;;;5083467;28;20043;-83
2024/03/16 01:37:04;;;;;;;66.05;21.95;;;10.80;99.90;;;;;;5103346;28;20074;-84
2024/03/16 01:39:30;;;;;;;69.20;23.98;;;10.80;99.90;;;;;;5104412;28;20434;-81
2024/03/16 01:41:56;;;;;;;63.38;23.20;;;10.70;99.90;;;;;;5095174;28;20070;-83
2024/03/16 01:44:21;;;;;;;66.70;24.23;;;10.70;99.90;;;;;;5080890;28;20046;-84
2024/03/16 01:46:47;;;;;;;67.80;23.92;;;10.70;99.90;;;;;;5083973;28;20405;-82
2024/03/16 01:49:13;;;;;;;59.03;22.80;;;10.70;99.90;;;;;;5112852;27;20046;-85
2024/03/16 01:51:39;;;;;;;60.10;24.05;;;10.70;99.90;;;;;;5105987;27;20054;-83
2024/03/16 01:54:05;;;;;;;62.97;22.50;;;10.70;99.90;;;;;;5125162;27;20047;-84
2024/03/16 01:56:32;;;;;;;54.10;21.77;;;10.70;99.90;;;;;;5105873;27;20028;-84
2024/03/16 01:58:58;;;;;;;59.08;20.90;;;10.60;99.90;;;;;;5085006;28;20048;-84
2024/03/16 02:01:25;;;;;;;53.05;18.20;;;10.60;99.90;;;;;;5088973;27;20035;-83
2024/03/16 02:03:53;;;;;;;56.78;17.83;;;10.60;99.90;;;;;;5103181;28;20617;-84
2024/03/16 02:06:19;;;;;;;54.45;18.33;;;10.60;99.90;;;;;;5108620;27;20039;-84
2024/03/16 02:08:45;;;;;;;47.28;16.70;;;10.60;99.90;;;;;;5096345;27;20046;-84
2024/03/16 02:11:10;;;;;;;38.58;14.23;;;10.50;99.90;;;;;;5085898;28;20075;-83
2024/03/16 02:13:36;;;;;;;39.63;14.40;;;10.50;99.90;;;;;;5089033;28;20525;-84
2024/03/16 02:16:02;;;;;;;24.27;11.32;;;10.50;99.90;;;;;;5119852;27;20036;-82
2024/03/16 02:18:28;;;;;;;25.00;11.15;;;10.40;99.90;;;;;;5078166;28;20040;-84
2024/03/16 02:20:54;;;;;;;27.98;11.77;;;10.30;99.90;;;;;;5128480;27;20044;-87
2024/03/16 02:23:21;;;;;;;22.67;10.18;;;10.20;99.90;;;;;;5119201;27;20043;-84
2024/03/16 02:25:48;;;;;;;25.33;11.10;;;10.10;99.90;;;;;;5105019;27;20047;-84
2024/03/16 02:28:14;;;;;;;18.58;8.98;;;10.10;99.90;;;;;;5089505;27;20043;-80
2024/03/16 02:30:39;;;;;;;19.83;8.95;;;10.00;99.90;;;;;;5111201;27;20051;-83
2024/03/16 02:33:09;;;;;;;20.63;9.00;;;9.90;99.90;;;;;;5094766;28;20050;-83
2024/03/16 02:35:35;;;;;;;15.18;8.00;;;9.80;99.90;;;;;;5081670;28;20040;-84
2024/03/16 02:38:01;;;;;;;15.98;8.38;;;9.80;99.90;;;;;;5086095;27;20043;-81
2024/03/16 02:40:28;;;;;;;22.88;7.88;;;9.70;99.90;;;;;;5090858;27;20510;-84
2024/03/16 02:42:54;;;;;;;14.55;6.20;;;9.70;99.90;;;;;;5102081;27;20048;-80
2024/03/16 02:45:19;;;;;;;8.65;4.28;;;9.60;99.90;;;;;;5087011;28;20089;-82
2024/03/16 02:47:45;;;;;;;10.93;4.05;;;9.50;99.90;;;;;;5091022;27;20286;-83
2024/03/16 02:50:12;;;;;;;6.20;3.35;;;9.40;99.90;;;;;;5104000;27;20072;-82
2024/03/16 02:52:38;;;;;;;7.50;3.20;;;9.40;99.90;;;;;;5096607;28;20052;-80
2024/03/16 02:55:05;;;;;;;6.53;2.90;;;9.30;99.90;;;;;;5109007;27;20043;-82
2024/03/16 02:57:31;;;;;;;9.57;3.20;;;9.20;99.90;;;;;;5087467;27;20475;-84
2024/03/16 02:59:57;;;;;;;5.30;1.92;;;9.10;99.90;;;;;;5109566;27;20052;-84
2024/03/16 03:02:23;;;;;;;7.60;2.63;;;9.00;99.90;;;;;;5099406;27;20050;-83
2024/03/16 03:04:52;;;;;;;7.13;2.97;;;8.90;99.90;;;;;;5078011;28;20130;-83
2024/03/16 03:07:18;;;;;;;9.07;2.78;;;8.90;99.90;;;;;;5107059;27;20035;-83
2024/03/16 03:09:46;;;;;;;6.88;2.45;;;8.90;99.90;;;;;;5099121;28;20565;-83
2024/03/16 03:12:12;;;;;;;5.72;2.80;;;8.90;99.90;;;;;;5084588;28;20039;-84
2024/03/16 03:14:38;;;;;;;10.90;3.42;;;8.80;99.90;;;;;;5102859;28;20052;-75
2024/03/16 03:17:03;;;;;;;6.07;3.15;;;8.90;99.90;;;;;;5101055;27;20520;-74
2024/03/16 03:19:29;;;;;;;5.90;2.85;;;8.80;99.90;;;;;;5083641;28;20031;-76
2024/03/16 03:21:55;;;;;;;5.53;2.60;;;8.80;99.90;;;;;;5097477;28;20051;-82
2024/03/16 03:24:21;;;;;;;9.30;3.13;;;8.80;99.90;;;;;;5092833;27;20054;-84
2024/03/16 03:26:47;;;;;;;7.35;3.33;;;8.80;99.90;;;;;;5106047;27;20050;-85
2024/03/16 03:29:13;;;;;;;6.50;3.08;;;8.70;99.90;;;;;;5107711;27;20381;-84
2024/03/16 03:31:39;;;;;;;5.55;2.67;;;8.70;99.90;;;;;;5103750;27;20094;-84
2024/03/16 03:34:05;;;;;;;8.98;3.60;;;8.70;99.90;;;;;;5079006;28;20414;-84
2024/03/16 03:36:31;;;;;;;6.90;2.45;;;8.70;99.90;;;;;;5102867;27;20733;-82
2024/03/16 03:38:57;;;;;;;7.90;2.83;;;8.70;99.90;;;;;;5109028;27;20051;-84
2024/03/16 03:41:23;;;;;;;6.88;3.05;;;8.60;99.90;;;;;;5113847;27;20043;-84
2024/03/16 03:43:59;;;;;;;10.18;4.03;;;8.60;99.90;;;;;;5096015;27;20498;-84
2024/03/16 03:46:49;;;;;;;7.38;2.85;;;8.60;99.90;;;;;;5096176;27;20344;-83
2024/03/16 03:49:35;;;;;;;6.70;2.35;;;8.60;99.90;;;;;;5077102;27;20083;-84
2024/03/16 03:52:02;;;;;;;6.85;2.70;;;8.50;99.90;;;;;;5124184;27;20374;-83
2024/03/16 03:54:28;;;;;;;6.03;2.50;;;8.50;99.90;;;;;;5086948;28;20050;-83
2024/03/16 03:56:54;;;;;;;6.50;2.50;;;8.50;99.90;;;;;;5088124;27;20031;-84
2024/03/16 03:59:21;;;;;;;6.35;2.33;;;8.50;99.90;;;;;;5089409;28;20433;-81
2024/03/16 04:01:47;;;;;;;6.68;2.00;;;8.50;99.90;;;;;;5087908;27;20137;-84
2024/03/16 04:04:13;;;;;;;3.38;1.60;;;8.40;99.90;;;;;;5116641;27;20569;-84
2024/03/16 04:06:44;;;;;;;4.15;1.90;;;8.40;99.90;;;;;;5083039;28;20143;-81
2024/03/16 04:09:13;;;;;;;4.43;1.88;;;8.40;99.90;;;;;;5086005;27;20184;-83
2024/03/16 04:11:41;;;;;;;9.45;1.80;;;8.40;99.90;;;;;;5084457;28;20066;-83
2024/03/16 04:14:07;;;;;;;5.63;1.83;;;8.40;99.90;;;;;;5103733;27;20146;-84
2024/03/16 04:16:33;;;;;;;4.10;2.00;;;8.40;99.90;;;;;;5086365;28;20544;-84
2024/03/16 04:18:59;;;;;;;7.78;2.70;;;8.30;99.90;;;;;;5100718;27;20043;-83
2024/03/16 04:21:24;;;;;;;8.85;3.83;;;8.30;99.90;;;;;;5087301;28;20109;-84
2024/03/16 04:23:50;;;;;;;11.55;4.75;;;8.30;99.90;;;;;;5101014;28;20070;-82
2024/03/16 04:26:16;;;;;;;11.63;5.88;;;8.30;99.90;;;;;;5079680;27;20039;-83
2024/03/16 04:28:42;;;;;;;11.63;5.88;;;8.20;99.90;;;;;;5107192;27;20496;-83
2024/03/16 04:31:08;;;;;;;14.40;5.93;;;8.20;99.90;;;;;;5113466;27;20417;-83
2024/03/16 04:33:34;;;;;;;14.27;6.18;;;8.10;99.90;;;;;;5107992;27;20041;-83
2024/03/16 04:35:59;;;;;;;16.45;6.18;;;8.10;99.90;;;;;;5101329;27;20498;-82
2024/03/16 04:38:25;;;;;;;18.98;6.18;;;8.10;99.90;;;;;;5086041;28;20052;-82
2024/03/16 04:40:51;;;;;;;20.05;6.15;;;8.10;99.90;;;;;;5081216;28;20062;-84
2024/03/16 04:43:17;;;;;;;22.15;6.70;;;8.00;99.90;;;;;;5084790;28;20044;-83
2024/03/16 04:45:50;;;;;;;19.65;5.47;;;8.00;99.90;;;;;;5087813;28;20051;-83
2024/03/16 04:48:16;;;;;;;17.88;5.03;;;8.00;99.90;;;;;;5099467;28;20054;-83
2024/03/16 04:50:41;;;;;;;18.70;4.38;;;8.00;99.90;;;;;;5100370;28;20696;-82
2024/03/16 04:53:07;;;;;;;20.75;4.57;;;7.90;99.90;;;;;;5106433;27;20166;-83
2024/03/16 04:55:33;;;;;;;16.08;3.83;;;7.90;99.90;;;;;;5101642;27;20043;-78
2024/03/16 04:58:04;;;;;;;19.15;4.15;;;7.90;99.90;;;;;;5106794;27;20144;-80
2024/03/16 05:00:29;;;;;;;15.70;4.07;;;7.80;99.90;;;;;;5099103;27;20052;-80
2024/03/16 05:02:55;;;;;;;19.55;4.13;;;7.70;99.90;;;;;;5102482;28;20058;-81
2024/03/16 05:05:22;;;;;;;17.63;3.90;;;7.70;99.90;;;;;;5101886;28;20390;-81
2024/03/16 05:07:48;;;;;;;23.30;4.65;;;7.70;99.90;;;;;;5085281;28;20090;-83
2024/03/16 05:10:14;;;;;;;13.73;3.97;;;7.60;99.90;;;;;;5115004;27;20070;-82
2024/03/16 05:12:39;;;;;;;18.77;3.80;;;7.60;99.90;;;;;;5077827;28;20048;-83
2024/03/16 05:15:07;;;;;;;24.15;5.03;;;7.60;99.90;;;;;;5087014;28;20040;-83
2024/03/16 05:17:33;;;;;;;18.98;3.85;;;7.60;99.90;;;;;;5088549;28;20233;-83
2024/03/16 05:19:59;;;;;;;16.23;4.22;;;7.60;99.90;;;;;;5092826;28;20051;-83
2024/03/16 05:22:25;;;;;;;15.73;3.17;;;7.60;99.90;;;;;;5100155;28;20114;-83
2024/03/16 05:24:51;;;;;;;15.13;3.30;;;7.60;99.90;;;;;;5112028;28;20083;-83
2024/03/16 05:27:17;;;;;;;14.35;3.40;;;7.60;99.90;;;;;;5080844;28;20078;-81
2024/03/16 05:29:43;;;;;;;21.80;3.95;;;7.60;99.90;;;;;;5087719;28;20558;-79
2024/03/16 05:32:09;;;;;;;15.20;3.45;;;7.60;99.90;;;;;;5102270;28;20170;-83
2024/03/16 05:34:35;;;;;;;16.55;3.80;;;7.50;99.90;;;;;;5099865;28;20042;-82
2024/03/16 05:37:01;;;;;;;11.75;3.08;;;7.50;99.90;;;;;;5078495;28;20040;-83
2024/03/16 05:39:26;;;;;;;15.05;3.63;;;7.40;99.90;;;;;;5079623;28;20507;-81
2024/03/16 05:41:52;;;;;;;15.15;3.45;;;7.40;99.90;;;;;;5086691;28;20044;-83
2024/03/16 05:44:18;;;;;;;16.80;3.63;;;7.40;99.90;;;;;;5090970;28;20122;-83
2024/03/16 05:46:44;;;;;;;15.85;3.42;;;7.40;99.90;;;;;;5099057;28;20122;-80
2024/03/16 05:49:10;;;;;;;15.50;3.53;;;7.40;99.90;;;;;;5086536;28;20048;-82
2024/03/16 05:51:35;;;;;;;18.17;3.42;;;7.40;99.90;;;;;;5100196;28;20502;-82
2024/03/16 05:54:04;;;;;;;14.75;3.33;;;7.40;99.90;;;;;;5097788;28;20043;-82
2024/03/16 05:56:29;;;;;;;15.55;3.80;;;7.40;99.90;;;;;;5080984;28;20101;-82
2024/03/16 05:58:55;;;;;;;15.45;3.75;;;7.40;99.90;;;;;;5100088;28;20051;-82
2024/03/16 06:01:24;;;;;;;13.45;3.15;;;7.40;99.90;;;;;;5100787;28;20170;-81
2024/03/16 06:03:51;;;;;;;15.60;3.88;;;7.40;99.90;;;;;;5103642;28;20039;-82
2024/03/16 06:06:17;;;;;;;11.20;2.65;;;7.40;99.90;;;;;;5092863;28;20191;-82
2024/03/16 06:08:44;;;;;;;16.70;3.13;;;7.40;99.90;;;;;;5105922;28;20137;-83
2024/03/16 06:11:09;;;;;;;15.07;3.33;;;7.40;99.90;;;;;;5095843;28;20043;-83
2024/03/16 06:13:35;;;;;;;10.52;2.63;;;7.40;99.90;;;;;;5103351;28;20046;-82
2024/03/16 06:16:02;;;;;;;13.20;2.83;;;7.40;99.90;;;;;;5099033;28;20126;-82
2024/03/16 06:18:27;;;;;;;11.75;3.20;;;7.50;99.90;;;;;;5105087;28;20043;-82
2024/03/16 06:20:53;;;;;;;9.38;2.80;;;7.40;99.90;;;;;;5085674;28;20100;-81
2024/03/16 06:23:19;;;;;;;12.70;2.50;;;7.40;99.90;;;;;;5102699;28;20038;-82
2024/03/16 06:25:49;;;;;;;16.88;3.65;;;7.40;99.90;;;;;;5085816;28;20436;-81
2024/03/16 06:28:21;;;;;;;12.23;2.72;;;7.40;99.90;;;;;;5088308;28;20524;-80
2024/03/16 06:30:55;;;;;;;14.68;2.85;;;7.40;99.90;;;;;;5078244;28;20040;-79
2024/03/16 06:33:29;;;;;;;13.00;2.97;;;7.40;99.90;;;;;;5088946;27;20134;-82
2024/03/16 06:35:55;;;;;;;15.13;3.45;;;7.50;99.90;;;;;;5090356;28;20067;-81
2024/03/16 06:38:22;;;;;;;13.95;2.65;;;7.40;99.90;;;;;;5104423;27;20035;-81
2024/03/16 06:40:49;;;;;;;12.93;3.03;;;7.40;99.90;;;;;;5105543;27;20122;-82
2024/03/16 06:43:15;;;;;;;9.82;2.20;;;7.40;99.90;;;;;;5135497;27;20038;-78
2024/03/16 06:45:42;;;;;;;8.32;2.15;;;7.40;99.90;;;;;;5090723;27;20043;-82
2024/03/16 06:48:07;;;;;;;8.82;2.28;;;7.40;99.90;;;;;;5087492;28;20048;-81
2024/03/16 06:50:36;;;;;;;12.18;2.50;;;7.40;99.90;;;;;;5089289;27;20065;-82
2024/03/16 06:53:02;;;;;;;6.93;1.88;;;7.40;99.90;;;;;;5086633;28;20044;-82
2024/03/16 06:55:27;;;;;;;6.38;2.17;;;7.40;99.90;;;;;;5106724;27;20103;-82
2024/03/16 06:57:53;;;;;;;9.65;1.95;;;7.40;99.90;;;;;;5085764;28;20047;-82
2024/03/16 07:00:19;;;;;;;10.88;1.88;;;7.40;99.90;;;;;;5103316;28;20119;-81
2024/03/16 07:02:45;;;;;;;9.63;2.15;;;7.40;99.90;;;;;;5084846;28;20105;-81
2024/03/16 07:05:11;;;;;;;10.55;2.00;;;7.40;99.90;;;;;;5102535;27;20100;-82
2024/03/16 07:07:36;;;;;;;9.30;2.00;;;7.40;99.90;;;;;;5083511;28;20384;-81
2024/03/16 07:10:05;;;;;;;10.30;1.73;;;7.50;99.90;;;;;;5084652;28;20128;-82
2024/03/16 07:12:32;;;;;;;10.18;2.35;;;7.50;99.90;;;;;;5115866;27;20040;-82
2024/03/16 07:15:01;;;;;;;10.75;1.88;;;7.50;99.90;;;;;;5085763;28;20516;-81
2024/03/16 07:17:26;;;;;;;10.05;1.90;;;7.50;99.90;;;;;;5137543;27;20505;-82
2024/03/16 07:19:55;;;;;;;8.43;1.65;;;7.50;99.90;;;;;;5102645;28;20043;-81
2024/03/16 07:22:21;;;;;;;6.78;2.10;;;7.50;99.90;;;;;;5094064;28;20040;-81
2024/03/16 07:24:50;;;;;;;9.93;2.05;;;7.50;99.90;;;;;;5081860;28;20138;-81
2024/03/16 07:27:16;;;;;;;8.95;2.17;;;7.60;99.90;;;;;;5101048;28;20441;-81
2024/03/16 07:29:44;;;;;;;5.63;1.50;;;7.60;99.90;;;;;;5110866;27;20079;-81
2024/03/16 07:32:09;;;;;;;7.45;2.05;;;7.60;99.90;;;;;;5108228;27;20508;-81
2024/03/16 07:34:37;;;;;;;10.02;2.13;;;7.60;99.90;;;;;;5090950;27;20045;-81
2024/03/16 07:37:04;;;;;;;9.85;2.10;;;7.60;99.90;;;;;;5102508;27;20097;-81
2024/03/16 07:39:30;;;;;;;10.45;2.00;;;7.60;99.90;;;;;;5089298;28;20040;-80
2024/03/16 07:41:56;;;;;;;11.68;2.17;;;7.70;99.90;;;;;;5085253;28;20044;-81
2024/03/16 07:44:24;;;;;;;11.13;2.10;;;7.70;99.90;;;;;;5099250;28;21511;-81
2024/03/16 07:46:50;;;;;;;9.15;2.00;;;7.60;99.90;;;;;;5083547;28;20044;-82
2024/03/16 07:49:16;;;;;;;6.20;1.60;;;7.70;99.90;;;;;;5102969;27;20108;-82
2024/03/16 07:51:43;;;;;;;8.85;2.38;;;7.80;99.90;;;;;;5086147;28;20066;-81
2024/03/16 07:54:12;;;;;;;8.55;2.10;;;7.80;99.90;;;;;;5087494;28;20436;-82
2024/03/16 07:56:38;;;;;;;7.40;1.88;;;7.80;99.90;;;;;;5117458;27;20043;-81
2024/03/16 07:59:04;;;;;;;9.93;2.88;;;7.80;99.90;;;;;;5100998;27;20432;-81
2024/03/16 08:01:31;;;;;;;9.77;2.22;;;7.90;99.90;;;;;;5112077;27;20075;-80
2024/03/16 08:03:56;;;;;;;8.98;2.20;;;8.00;99.90;;;;;;5101209;27;20101;-82
2024/03/16 08:06:22;;;;;;;7.45;1.90;;;7.90;99.90;;;;;;5084042;27;20036;-81
2024/03/16 08:08:54;;;;;;;9.80;2.55;;;7.90;99.90;;;;;;5113255;27;20036;-81
2024/03/16 08:11:20;;;;;;;9.82;2.22;;;8.00;99.90;;;;;;5106324;27;20104;-85
2024/03/16 08:13:46;;;;;;;13.07;3.55;;;8.00;99.90;;;;;;5097625;28;20039;-84
2024/03/16 08:16:12;;;;;;;10.35;2.03;;;8.00;99.90;;;;;;5098931;27;20200;-81
2024/03/16 08:18:38;;;;;;;8.60;2.10;;;8.00;99.90;;;;;;5098892;28;20131;-81
2024/03/16 08:21:04;;;;;;;9.88;2.13;;;8.00;99.90;;;;;;5087129;27;20123;-82
2024/03/16 08:23:30;;;;;;;11.65;1.70;;;8.00;99.90;;;;;;5083961;27;20645;-82
2024/03/16 08:25:56;;;;;;;10.30;2.20;;;8.10;99.90;;;;;;5084897;28;20066;-81
2024/03/16 08:28:25;;;;;;;7.40;1.70;;;8.10;99.90;;;;;;5084054;28;20458;-81
2024/03/16 08:30:51;;;;;;;9.52;1.63;;;8.20;99.90;;;;;;5084741;28;20520;-80
2024/03/16 08:33:17;;;;;;;8.82;2.30;;;8.20;99.90;;;;;;5083526;27;20051;-82
2024/03/16 08:35:43;;;;;;;8.63;1.52;;;8.30;99.90;;;;;;5102187;27;20038;-82
2024/03/16 08:38:10;;;;;;;7.75;1.55;;;8.40;99.90;;;;;;5107088;27;20152;-78
2024/03/16 08:40:36;;;;;;;11.13;1.88;;;8.30;99.90;;;;;;5104550;27;20040;-82
2024/03/16 08:43:02;;;;;;;10.65;2.22;;;8.40;99.90;;;;;;5100476;28;20092;-80
2024/03/16 08:45:28;;;;;;;8.30;1.60;;;8.40;99.90;;;;;;5082907;28;20050;-82
2024/03/16 08:47:54;;;;;;;8.00;1.65;;;8.50;99.90;;;;;;5103089;28;20443;-81
2024/03/16 08:50:20;;;;;;;10.77;1.88;;;8.60;99.90;;;;;;5081884;27;20469;-82
2024/03/16 08:52:47;;;;;;;11.60;2.15;;;8.60;99.90;;;;;;5080033;28;20433;-79
2024/03/16 08:55:13;;;;;;;7.93;1.65;;;8.60;99.90;;;;;;5114686;27;20054;-82
2024/03/16 08:57:40;;;;;;;7.07;1.38;;;8.60;99.90;;;;;;5085335;28;20071;-80
2024/03/16 09:00:12;;;;;;;10.35;1.52;;;8.60;99.90;;;;;;5087855;27;20398;-82
2024/03/16 09:02:38;;;;;;;6.32;1.55;;;8.70;99.90;;;;;;5090172;27;20032;-81
2024/03/16 09:05:04;;;;;;;8.13;1.23;;;8.70;99.90;;;;;;5141563;27;21154;-82
2024/03/16 09:07:29;;;;;;;8.00;1.42;;;8.80;99.90;;;;;;5085208;28;20035;-81
2024/03/16 09:09:57;;;;;;;6.38;1.35;;;8.90;99.90;;;;;;5095008;28;20980;-82
2024/03/16 09:12:23;;;;;;;7.15;1.30;;;8.90;99.90;;;;;;5101638;27;20104;-81
2024/03/16 09:14:49;;;;;;;7.55;1.42;;;9.00;99.90;;;;;;5086740;28;20688;-81
2024/03/16 09:17:15;;;;;;;8.52;1.52;;;9.10;99.90;;;;;;5092782;28;20044;-79
2024/03/16 09:19:40;;;;;;;8.90;1.55;;;9.10;99.90;;;;;;5083324;28;20044;-83
2024/03/16 09:22:06;;;;;;;10.50;1.40;;;9.20;99.90;;;;;;5113696;28;20054;-82
2024/03/16 09:24:33;;;;;;;7.78;1.33;;;9.20;99.90;;;;;;5087648;28;20036;-82
2024/03/16 09:26:58;;;;;;;8.43;1.75;;;9.20;99.90;;;;;;5084179;28;20051;-82
2024/03/16 09:29:24;;;;;;;5.70;1.48;;;9.10;99.90;;;;;;5082957;28;20370;-82
2024/03/16 09:31:50;;;;;;;7.53;1.30;;;9.10;99.90;;;;;;5103326;28;20114;-82
2024/03/16 09:34:16;;;;;;;8.20;1.50;;;9.10;99.90;;;;;;5088559;28;20036;-81
2024/03/16 09:36:41;;;;;;;7.22;1.85;;;9.10;99.90;;;;;;5089674;28;20046;-80
2024/03/16 09:39:10;;;;;;;9.60;1.50;;;9.10;99.90;;;;;;5081189;28;20043;-83
2024/03/16 09:41:38;;;;;;;8.07;1.55;;;9.10;99.90;;;;;;5105438;28;20105;-83
2024/03/16 09:44:11;;;;;;;8.98;1.70;;;9.10;99.90;;;;;;5102469;28;20047;-84
2024/03/16 09:46:49;;;;;;;10.52;2.35;;;9.00;99.90;;;;;;5097522;28;20160;-84
2024/03/16 09:49:15;;;;;;;9.65;2.05;;;9.10;99.90;;;;;;5105023;28;20040;-82
2024/03/16 09:51:41;;;;;;;5.82;1.58;;;9.00;99.90;;;;;;5082654;28;20054;-83
2024/03/16 09:54:09;;;;;;;9.95;1.88;;;9.10;99.90;;;;;;5090719;28;20046;-81
2024/03/16 09:56:39;;;;;;;11.95;1.80;;;9.00;99.90;;;;;;5080177;28;20040;-81
2024/03/16 09:59:16;;;;;;;7.28;1.48;;;9.00;99.90;;;;;;5076549;28;20040;-80
2024/03/16 10:01:41;;;;;;;8.50;1.40;;;9.10;99.90;;;;;;5084503;28;20126;-77
2024/03/16 10:04:08;;;;;;;7.00;1.40;;;9.10;99.90;;;;;;5111928;28;20419;-80
2024/03/16 10:06:34;;;;;;;6.10;1.50;;;9.10;99.90;;;;;;5087673;28;20137;-82
2024/03/16 10:09:11;;;;;;;7.47;1.63;;;9.10;99.90;;;;;;5107675;28;20047;-81
2024/03/16 10:11:37;;;;;;;5.80;1.20;;;9.10;99.90;;;;;;5104948;27;20067;-81
2024/03/16 10:14:07;;;;;;;7.10;1.75;;;9.10;99.90;;;;;;5090348;28;20060;-81
2024/03/16 10:16:33;;;;;;;5.47;1.38;;;9.20;99.90;;;;;;5102138;27;20032;-80
2024/03/16 10:18:59;;;;;;;6.80;1.15;;;9.20;99.90;;;;;;5102938;27;20122;-81
2024/03/16 10:21:29;;;;;;;8.00;1.40;;;9.20;99.90;;;;;;5090029;28;20511;-81
2024/03/16 10:23:59;;;;;;;7.10;1.13;;;9.20;99.90;;;;;;5085645;28;20031;-81
2024/03/16 10:26:30;;;;;;;10.50;1.50;;;9.20;99.90;;;;;;5138497;27;20048;-80
2024/03/16 10:29:01;;;;;;;8.65;2.00;;;9.30;99.90;;;;;;5104371;27;20196;-81
2024/03/16 10:31:29;;;;;;;6.72;1.25;;;9.30;99.90;;;;;;5092244;28;20242;-80
2024/03/16 10:34:01;;;;;;;8.05;1.45;;;9.40;99.90;;;;;;5102942;28;20048;-81
2024/03/16 10:36:27;;;;;;;5.22;1.30;;;9.50;99.90;;;;;;5106473;27;20134;-82
2024/03/16 10:38:55;;;;;;;5.38;1.30;;;9.60;99.90;;;;;;5101898;27;20586;-82
2024/03/16 10:41:21;;;;;;;8.63;1.50;;;9.70;99.90;;;;;;5124121;27;20047;-80
2024/03/16 10:43:48;;;;;;;5.53;1.17;;;9.80;99.90;;;;;;5120325;27;20082;-81
2024/03/16 10:46:15;;;;;;;4.57;1.23;;;9.90;99.90;;;;;;5089783;28;20048;-81
2024/03/16 10:48:45;;;;;;;10.20;1.42;;;9.80;99.90;;;;;;5108254;27;20545;-81
2024/03/16 10:51:17;;;;;;;6.63;1.42;;;9.70;99.90;;;;;;5087732;28;20588;-82
2024/03/16 10:53:45;;;;;;;7.20;2.20;;;9.60;99.90;;;;;;5095605;28;20408;-81
2024/03/16 10:56:13;;;;;;;10.43;2.28;;;9.40;99.90;;;;;;5104551;27;20091;-81
2024/03/16 10:58:39;;;;;;;18.02;7.97;;;9.40;99.90;;;;;;5102077;28;20105;-81
2024/03/16 11:01:11;;;;;;;12.65;3.30;;;9.40;99.90;;;;;;5088359;28;20489;-81
2024/03/16 11:03:38;;;;;;;8.43;3.00;;;9.30;99.90;;;;;;5083796;28;20043;-82
2024/03/16 11:06:12;;;;;;;7.88;2.28;;;9.30;99.90;;;;;;5103627;28;20046;-83
2024/03/16 11:08:42;;;;;;;11.73;3.22;;;9.30;99.90;;;;;;5102769;27;20052;-82
2024/03/16 11:11:15;;;;;;;10.20;2.10;;;9.30;99.90;;;;;;5091602;27;20047;-81
2024/03/16 11:14:08;;;;;;;14.35;4.30;;;9.30;99.90;;;;;;5105177;27;20122;-81
2024/03/16 11:16:47;;;;;;;11.30;4.95;;;9.40;99.90;;;;;;5101742;27;20078;-81
2024/03/16 11:19:22;;;;;;;6.90;1.73;;;9.40;99.90;;;;;;5080372;28;20871;-82
2024/03/16 11:21:49;;;;;;;7.47;1.70;;;9.50;99.90;;;;;;5120946;27;20071;-81
2024/03/16 11:24:17;;;;;;;9.10;1.95;;;9.60;99.90;;;;;;5103447;27;20103;-82
2024/03/16 11:26:46;;;;;;;8.75;2.30;;;9.70;99.90;;;;;;5084395;28;20043;-81
2024/03/16 11:29:15;;;;;;;6.40;1.75;;;9.70;99.90;;;;;;5080919;28;20596;-82
2024/03/16 11:31:44;;;;;;;9.82;4.00;;;9.70;99.90;;;;;;5084108;28;20090;-83
2024/03/16 11:34:16;;;;;;;7.57;2.03;;;9.70;99.90;;;;;;5098793;27;20044;-83
2024/03/16 11:36:56;;;;;;;10.00;2.20;;;9.80;99.90;;;;;;5117832;27;20083;-83
2024/03/16 11:39:29;;;;;;;7.97;2.20;;;9.80;99.90;;;;;;5104167;27;20031;-82
2024/03/16 11:41:58;;;;;;;7.97;1.50;;;9.90;99.90;;;;;;5105023;27;20445;-82
2024/03/16 11:44:25;;;;;;;8.45;1.90;;;10.00;99.90;;;;;;5101017;28;20048;-81
2024/03/16 11:46:53;;;;;;;7.00;2.92;;;10.30;99.90;;;;;;5104003;28;20337;-83
2024/03/16 11:49:21;;;;;;;8.82;1.85;;;10.60;99.90;;;;;;5078018;28;20051;-77
2024/03/16 11:51:49;;;;;;;8.88;1.38;;;10.60;99.90;;;;;;5085979;28;20124;-83
2024/03/16 11:54:18;;;;;;;12.02;6.60;;;10.60;99.90;;;;;;5122477;27;20054;-83
2024/03/16 11:56:44;;;;;;;7.15;1.55;;;10.50;99.90;;;;;;5103636;27;20043;-83
2024/03/16 11:59:20;;;;;;;11.73;1.55;;;10.50;99.90;;;;;;5087823;28;20191;-82
2024/03/16 12:01:54;;;;;;;6.50;1.52;;;10.40;99.90;;;;;;5132683;27;20051;-82
2024/03/16 12:04:27;;;;;;;6.35;1.00;;;10.30;99.90;;;;;;5101788;28;20090;-82
2024/03/16 12:06:56;;;;;;;7.20;1.85;;;10.20;99.90;;;;;;5098953;28;20051;-82
2024/03/16 12:09:30;;;;;;;7.97;1.42;;;10.10;99.90;;;;;;5092683;28;20126;-82
2024/03/16 12:12:00;;;;;;;5.50;1.17;;;10.10;99.90;;;;;;5083274;28;20115;-81
2024/03/16 12:14:25;;;;;;;6.72;1.40;;;10.10;99.90;;;;;;5087921;28;20479;-81
2024/03/16 12:16:53;;;;;;;8.88;2.10;;;10.20;99.90;;;;;;5083781;28;20031;-81
2024/03/16 12:19:19;;;;;;;8.18;1.95;;;10.40;99.90;;;;;;5084338;28;20044;-80
2024/03/16 12:21:49;;;;;;;5.28;1.27;;;10.60;99.90;;;;;;5104016;27;20555;-80
2024/03/16 12:24:19;;;;;;;5.88;1.55;;;10.60;99.90;;;;;;5086264;28;20055;-81
2024/03/16 12:26:46;;;;;;;7.65;1.40;;;10.60;99.90;;;;;;5093778;27;20031;-75
2024/03/16 12:29:17;;;;;;;6.82;1.30;;;10.70;99.90;;;;;;5085374;28;20054;-82
2024/03/16 12:31:53;;;;;;;7.07;1.50;;;10.70;99.90;;;;;;5104485;28;20051;-80
2024/03/16 12:34:19;;;;;;;6.13;1.10;;;10.80;99.90;;;;;;5082822;27;20475;-78
2024/03/16 12:36:44;;;;;;;8.73;1.65;;;11.00;99.90;;;;;;5099282;27;20066;-82
2024/03/16 12:39:14;;;;;;;5.90;1.45;;;11.20;99.90;;;;;;5082661;28;20481;-82
2024/03/16 12:41:41;;;;;;;7.63;2.53;;;11.30;99.90;;;;;;5099757;27;20044;-82
2024/03/16 12:44:08;;;;;;;7.47;1.58;;;11.50;99.90;;;;;;5096559;28;20043;-80
2024/03/16 12:46:34;;;;;;;7.53;1.80;;;11.50;99.90;;;;;;5104996;27;20261;-81
2024/03/16 12:49:00;;;;;;;6.72;1.67;;;11.40;99.90;;;;;;5097422;27;20409;-80